Time;durP1;ratioP1;P1;durP2;ratioP2;P2;SDS_P1;SDS_P2;PMS_P1;PMS_P2;Temp;Humidity;BMP_temperature;BMP_pressure;BME280_temperature;BME280_humidity;BME280_pressure;Samples;Min_cycle;Max_cycle;Signal;HPM_P1;HPM_P2
2023/08/18 00:01:50;;;;;;;8.43;5.90;;;;;;;19.19;100.00;101756.44;5091883;28;20058;-66
2023/08/18 00:04:17;;;;;;;7.30;6.05;;;;;;;19.19;100.00;101759.09;5086765;28;20082;-66
2023/08/18 00:06:43;;;;;;;7.15;5.85;;;;;;;19.19;100.00;101749.31;5073014;28;20078;-65
2023/08/18 00:09:10;;;;;;;7.50;6.10;;;;;;;19.19;100.00;101746.66;5100564;28;20051;-65
2023/08/18 00:11:36;;;;;;;7.10;5.70;;;;;;;19.17;100.00;101748.66;5082822;28;20101;-65
2023/08/18 00:14:03;;;;;;;7.55;6.43;;;;;;;19.16;100.00;101755.78;5086259;28;20048;-66
2023/08/18 00:16:29;;;;;;;5.10;4.60;;;;;;;19.14;100.00;101744.50;5095226;28;20055;-65
2023/08/18 00:18:55;;;;;;;7.38;5.95;;;;;;;19.15;100.00;101754.16;5081856;28;20040;-65
2023/08/18 00:21:22;;;;;;;7.75;5.47;;;;;;;19.09;100.00;101748.72;5083813;28;20127;-64
2023/08/18 00:23:48;;;;;;;9.80;6.05;;;;;;;19.07;100.00;101746.25;5086460;28;20048;-64
2023/08/18 00:26:15;;;;;;;6.65;5.70;;;;;;;19.05;100.00;101747.44;5101763;28;20467;-64
2023/08/18 00:28:41;;;;;;;7.18;5.63;;;;;;;18.99;100.00;101745.50;5099832;28;20134;-64
2023/08/18 00:31:08;;;;;;;9.88;5.55;;;;;;;19.00;100.00;101749.81;5087486;28;20048;-66
2023/08/18 00:33:34;;;;;;;6.65;5.57;;;;;;;18.99;100.00;101743.66;5088003;28;20051;-64
2023/08/18 00:36:01;;;;;;;5.82;4.45;;;;;;;19.01;100.00;101751.44;5091088;28;20057;-64
2023/08/18 00:38:27;;;;;;;5.72;4.75;;;;;;;19.00;100.00;101752.47;5107074;28;20524;-64
2023/08/18 00:40:55;;;;;;;7.20;5.25;;;;;;;19.00;100.00;101753.28;5098663;28;20040;-64
2023/08/18 00:43:22;;;;;;;9.07;5.55;;;;;;;19.00;100.00;101747.16;5093723;28;20048;-64
2023/08/18 00:45:49;;;;;;;6.15;5.00;;;;;;;19.01;100.00;101752.28;5088093;28;20047;-63
2023/08/18 00:48:16;;;;;;;7.30;4.80;;;;;;;19.01;100.00;101754.94;5092619;28;20048;-66
2023/08/18 00:50:44;;;;;;;6.45;4.72;;;;;;;19.03;100.00;101760.91;5092219;28;20048;-66
2023/08/18 00:53:11;;;;;;;6.20;4.80;;;;;;;19.02;100.00;101753.94;5088130;28;20055;-67
2023/08/18 00:55:39;;;;;;;7.50;5.00;;;;;;;19.01;100.00;101751.44;5087512;28;20048;-67
2023/08/18 00:58:06;;;;;;;6.82;4.55;;;;;;;19.01;100.00;101749.63;5083444;28;20044;-66
2023/08/18 01:00:32;;;;;;;7.53;4.88;;;;;;;18.98;100.00;101751.84;5096608;28;20497;-62
2023/08/18 01:03:00;;;;;;;6.53;5.05;;;;;;;18.96;100.00;101744.84;5091429;28;20048;-62
2023/08/18 01:05:26;;;;;;;7.22;5.20;;;;;;;18.96;100.00;101744.03;5104821;28;20051;-62
2023/08/18 01:07:53;;;;;;;7.40;4.97;;;;;;;18.95;100.00;101739.69;5086369;28;20052;-65
2023/08/18 01:10:21;;;;;;;6.82;5.25;;;;;;;18.96;100.00;101741.38;5104088;28;20458;-65
2023/08/18 01:13:12;;;;;;;7.35;4.78;;;;;;;18.92;100.00;101740.91;5086538;28;20135;-62
2023/08/18 01:15:43;;;;;;;8.73;4.60;;;;;;;18.91;100.00;101741.88;5084685;28;20048;-62
2023/08/18 01:18:10;;;;;;;8.48;5.43;;;;;;;18.89;100.00;101743.91;5101444;28;20717;-62
2023/08/18 01:20:38;;;;;;;6.85;5.10;;;;;;;18.91;100.00;101743.72;5096542;28;20131;-62
2023/08/18 01:23:04;;;;;;;8.15;4.90;;;;;;;18.89;100.00;101741.25;5088460;28;20472;-62
2023/08/18 01:25:31;;;;;;;9.45;5.72;;;;;;;18.87;100.00;101734.47;5098181;28;20051;-65
2023/08/18 01:27:59;;;;;;;8.20;5.68;;;;;;;18.86;100.00;101733.63;5099724;28;20051;-63
2023/08/18 01:30:32;;;;;;;8.65;6.10;;;;;;;18.81;100.00;101740.50;5102852;28;20059;-63
2023/08/18 01:33:19;;;;;;;6.32;4.85;;;;;;;18.83;100.00;101739.31;5098129;28;20496;-63
2023/08/18 01:35:46;;;;;;;7.20;5.82;;;;;;;18.82;100.00;101735.00;5089092;28;20051;-62
2023/08/18 01:38:15;;;;;;;7.73;5.47;;;;;;;18.83;100.00;101733.16;5097919;28;20099;-63
2023/08/18 01:40:43;;;;;;;7.18;5.00;;;;;;;18.82;100.00;101726.19;5090844;28;20280;-63
2023/08/18 01:43:09;;;;;;;7.10;4.97;;;;;;;18.83;100.00;101733.16;5092242;28;20143;-63
2023/08/18 01:45:36;;;;;;;6.45;5.47;;;;;;;18.77;100.00;101729.34;5090694;28;21674;-62
2023/08/18 01:48:03;;;;;;;6.20;4.97;;;;;;;18.78;100.00;101731.03;5103227;28;20043;-64
2023/08/18 01:50:30;;;;;;;8.15;6.05;;;;;;;18.77;100.00;101724.84;5096114;28;20055;-63
2023/08/18 01:52:56;;;;;;;7.82;5.55;;;;;;;18.78;100.00;101723.06;5096318;28;20048;-63
2023/08/18 01:55:23;;;;;;;7.55;4.28;;;;;;;18.81;100.00;101721.88;5086874;28;20052;-64
2023/08/18 01:57:49;;;;;;;6.93;5.55;;;;;;;18.77;100.00;101710.75;5104797;28;20098;-64
2023/08/18 02:00:16;;;;;;;7.85;4.65;;;;;;;18.76;100.00;101712.59;5100495;28;20054;-63
2023/08/18 02:02:46;;;;;;;7.72;5.32;;;;;;;18.75;100.00;101713.56;5102526;28;20059;-63
2023/08/18 02:05:14;;;;;;;8.07;5.65;;;;;;;18.69;100.00;101708.97;5100914;28;20143;-63
2023/08/18 02:07:40;;;;;;;9.23;5.38;;;;;;;18.74;100.00;101706.63;5099708;28;20115;-63
2023/08/18 02:10:07;;;;;;;6.07;3.75;;;;;;;18.77;100.00;101700.94;5099724;28;20071;-64
2023/08/18 02:12:33;;;;;;;6.40;4.57;;;;;;;18.77;100.00;101700.94;5081206;28;20052;-63
2023/08/18 02:15:00;;;;;;;6.55;4.57;;;;;;;18.77;100.00;101692.97;5079034;28;20096;-63
2023/08/18 02:17:29;;;;;;;6.72;4.65;;;;;;;18.78;100.00;101696.47;5088999;28;20055;-64
2023/08/18 02:19:59;;;;;;;6.57;4.88;;;;;;;18.82;100.00;101699.59;5104252;28;20497;-65
2023/08/18 02:22:26;;;;;;;8.65;5.07;;;;;;;18.77;100.00;101692.97;5091631;28;20048;-65
2023/08/18 02:24:53;;;;;;;6.70;4.78;;;;;;;18.76;100.00;101688.66;5098868;27;20048;-65
2023/08/18 02:27:20;;;;;;;8.13;5.13;;;;;;;18.77;100.00;101679.69;5092893;28;20139;-65
2023/08/18 02:29:46;;;;;;;6.70;5.25;;;;;;;18.77;100.00;101689.50;5092009;27;20054;-65
2023/08/18 02:32:13;;;;;;;7.60;5.15;;;;;;;18.74;100.00;101690.69;5099582;28;20082;-65
2023/08/18 02:34:39;;;;;;;6.30;4.57;;;;;;;18.74;100.00;101687.22;5079334;28;20059;-65
2023/08/18 02:37:06;;;;;;;6.45;5.10;;;;;;;18.70;100.00;101670.78;5093364;28;20105;-65
2023/08/18 02:39:33;;;;;;;8.30;5.30;;;;;;;18.67;100.00;101672.97;5106884;28;20097;-65
2023/08/18 02:41:59;;;;;;;7.00;5.50;;;;;;;18.69;100.00;101663.81;5096540;28;20048;-65
2023/08/18 02:44:26;;;;;;;6.22;5.05;;;;;;;18.65;100.00;101670.50;5104160;27;20051;-65
2023/08/18 02:46:52;;;;;;;8.18;4.95;;;;;;;18.66;100.00;101682.78;5075579;28;20048;-64
2023/08/18 02:49:19;;;;;;;7.53;5.45;;;;;;;18.62;100.00;101697.44;5077170;28;20458;-65
2023/08/18 02:51:45;;;;;;;7.22;5.50;;;;;;;18.59;100.00;101687.16;5098398;28;20143;-64
2023/08/18 02:54:12;;;;;;;10.00;5.65;;;;;;;18.58;100.00;101683.66;5086937;28;20056;-65
2023/08/18 02:56:38;;;;;;;8.40;6.03;;;;;;;18.58;100.00;101690.78;5089295;28;20102;-65
2023/08/18 02:59:05;;;;;;;8.15;6.00;;;;;;;18.61;100.00;101697.59;5099556;28;20517;-65
2023/08/18 03:01:32;;;;;;;8.48;5.55;;;;;;;18.62;100.00;101688.63;5103057;28;20171;-65
2023/08/18 03:03:59;;;;;;;7.55;5.80;;;;;;;18.62;100.00;101688.63;5090439;28;20048;-64
2023/08/18 03:06:25;;;;;;;7.68;5.97;;;;;;;18.58;100.00;101683.66;5096940;28;20051;-64
2023/08/18 03:08:51;;;;;;;9.77;5.80;;;;;;;18.59;100.00;101681.84;5093819;27;20450;-65
2023/08/18 03:11:18;;;;;;;9.95;6.03;;;;;;;18.60;100.00;101683.47;5098693;27;20047;-65
2023/08/18 03:13:44;;;;;;;11.55;7.82;;;;;;;18.62;100.00;101691.28;5094751;28;20047;-65
2023/08/18 03:16:11;;;;;;;8.00;5.95;;;;;;;18.61;100.00;101684.31;5074276;28;20054;-65
2023/08/18 03:18:38;;;;;;;8.98;6.22;;;;;;;18.62;100.00;101681.50;5095646;28;20070;-64
2023/08/18 03:21:04;;;;;;;10.07;7.07;;;;;;;18.64;100.00;101678.63;5098526;28;20441;-64
2023/08/18 03:23:31;;;;;;;8.25;6.95;;;;;;;18.61;100.00;101677.16;5096071;28;20048;-65
2023/08/18 03:26:00;;;;;;;9.75;7.07;;;;;;;18.65;100.00;101680.31;5100659;28;20082;-64
2023/08/18 03:28:27;;;;;;;8.30;6.05;;;;;;;18.65;100.00;101672.31;5080888;28;20059;-64
2023/08/18 03:30:58;;;;;;;9.82;8.20;;;;;;;18.63;100.00;101669.84;5101706;28;20043;-64
2023/08/18 03:33:26;;;;;;;9.93;7.35;;;;;;;18.60;100.00;101661.41;5091155;28;20791;-64
2023/08/18 03:35:52;;;;;;;10.77;9.05;;;;;;;18.59;100.00;101665.91;5090529;28;20044;-64
2023/08/18 03:38:19;;;;;;;11.35;8.98;;;;;;;18.65;100.00;101667.81;5100175;28;20059;-65
2023/08/18 03:40:45;;;;;;;11.45;9.63;;;;;;;18.64;100.00;101675.97;5104933;27;20048;-65
2023/08/18 03:43:12;;;;;;;10.38;8.75;;;;;;;18.62;100.00;101676.19;5101660;28;20132;-65
2023/08/18 03:45:38;;;;;;;13.10;9.45;;;;;;;18.60;100.00;101672.84;5076940;28;20091;-65
2023/08/18 03:48:05;;;;;;;11.35;9.60;;;;;;;18.60;100.00;101674.69;5087059;28;20050;-65
2023/08/18 03:50:31;;;;;;;11.63;9.13;;;;;;;18.56;100.00;101677.72;5085488;27;20101;-65
2023/08/18 03:52:58;;;;;;;12.85;9.95;;;;;;;18.55;100.00;101681.34;5100277;28;20090;-64
2023/08/18 03:55:26;;;;;;;13.70;10.70;;;;;;;18.54;100.00;101679.72;5082306;28;20051;-65
2023/08/18 03:57:52;;;;;;;13.25;9.93;;;;;;;18.59;100.00;101681.84;5093224;28;20047;-64
2023/08/18 04:00:19;;;;;;;14.55;10.90;;;;;;;18.61;100.00;101666.53;5093676;28;20105;-65
2023/08/18 04:02:45;;;;;;;15.00;10.52;;;;;;;18.63;100.00;101669.84;5092503;28;20219;-65
2023/08/18 04:05:12;;;;;;;15.38;10.20;;;;;;;18.62;100.00;101664.69;5090037;28;20052;-65
2023/08/18 04:07:39;;;;;;;15.20;11.35;;;;;;;18.56;100.00;101667.09;5099160;28;20059;-65
2023/08/18 04:10:07;;;;;;;13.80;11.75;;;;;;;18.54;100.00;101665.59;5098120;28;20036;-64
2023/08/18 04:12:34;;;;;;;;;;;;;;;18.56;100.00;101671.56;5077275;28;20080;-64
2023/08/18 04:15:00;;;;;;;12.75;10.07;;;;;;;18.57;100.00;101667.91;5084682;28;19927;-64
2023/08/18 04:17:27;;;;;;;10.23;7.97;;;;;;;18.55;100.00;101670.72;5088087;28;20151;-64
2023/08/18 04:19:53;;;;;;;17.35;11.07;;;;;;;18.52;100.00;101668.44;5103826;28;20039;-65
2023/08/18 04:22:20;;;;;;;14.48;12.18;;;;;;;18.50;100.00;101664.28;5105854;28;20055;-65
2023/08/18 04:24:46;;;;;;;17.00;12.20;;;;;;;18.48;100.00;101664.47;5079824;28;20127;-65
2023/08/18 04:27:13;;;;;;;15.18;12.40;;;;;;;18.44;100.00;101665.00;5080033;28;20048;-65
2023/08/18 04:29:40;;;;;;;16.00;12.68;;;;;;;18.43;100.00;101664.19;5099105;28;20563;-65
2023/08/18 04:32:06;;;;;;;13.85;9.98;;;;;;;18.47;100.00;101660.19;5100754;28;20047;-64
2023/08/18 04:34:33;;;;;;;18.30;12.18;;;;;;;18.44;100.00;101652.56;5092219;28;20051;-65
2023/08/18 04:36:59;;;;;;;18.25;12.68;;;;;;;18.47;100.00;101652.22;5098557;28;20047;-64
2023/08/18 04:39:26;;;;;;;17.85;12.45;;;;;;;18.47;100.00;101654.88;5105484;28;20055;-65
2023/08/18 04:41:52;;;;;;;19.10;13.40;;;;;;;18.45;100.00;101658.72;5084084;28;20810;-65
2023/08/18 04:44:18;;;;;;;17.80;12.75;;;;;;;18.44;100.00;101662.34;5100098;28;20143;-65
2023/08/18 04:46:45;;;;;;;19.20;13.75;;;;;;;18.45;100.00;101662.19;5099729;28;20040;-65
2023/08/18 04:49:12;;;;;;;19.10;12.70;;;;;;;18.48;100.00;101663.66;5097528;28;20122;-64
2023/08/18 04:51:38;;;;;;;20.65;13.70;;;;;;;18.49;100.00;101667.97;5096475;28;20063;-64
2023/08/18 04:54:05;;;;;;;17.83;13.35;;;;;;;18.43;100.00;101666.84;5072962;28;20047;-64
2023/08/18 04:56:32;;;;;;;18.52;13.82;;;;;;;18.44;100.00;101670.31;5105792;28;20054;-64
2023/08/18 04:58:58;;;;;;;25.95;14.18;;;;;;;18.40;100.00;101667.19;5091687;28;20431;-64
2023/08/18 05:01:25;;;;;;;16.42;11.05;;;;;;;18.41;100.00;101671.53;5103534;27;20059;-64
2023/08/18 05:03:51;;;;;;;19.52;14.30;;;;;;;18.43;100.00;101672.16;5076754;28;20500;-64
2023/08/18 05:06:19;;;;;;;16.38;12.02;;;;;;;18.44;100.00;101659.69;5097028;28;20058;-64
2023/08/18 05:08:46;;;;;;;19.63;13.43;;;;;;;18.42;100.00;101662.53;5104225;28;20047;-64
2023/08/18 05:11:12;;;;;;;17.27;11.77;;;;;;;18.43;100.00;101658.06;5090383;28;20055;-65
2023/08/18 05:13:41;;;;;;;15.38;11.02;;;;;;;18.45;100.00;101650.75;5089538;28;20056;-64
2023/08/18 05:16:07;;;;;;;17.92;13.48;;;;;;;18.49;100.00;101652.03;5095511;28;20162;-64
2023/08/18 05:18:35;;;;;;;19.05;13.48;;;;;;;18.50;100.00;101643.03;5098170;28;20810;-64
2023/08/18 05:21:02;;;;;;;18.15;12.07;;;;;;;18.47;100.00;101648.72;5094298;28;20083;-64
2023/08/18 05:23:30;;;;;;;22.40;14.80;;;;;;;18.51;100.00;101652.69;5091578;28;20615;-63
2023/08/18 05:25:59;;;;;;;19.75;13.50;;;;;;;18.51;100.00;101655.34;5102457;28;20291;-64
2023/08/18 05:28:29;;;;;;;21.17;14.68;;;;;;;18.52;100.00;101654.31;5101776;28;20056;-64
2023/08/18 05:30:56;;;;;;;16.13;12.65;;;;;;;18.52;100.00;101644.53;5096643;28;20760;-64
2023/08/18 05:33:22;;;;;;;23.27;14.60;;;;;;;18.53;100.00;101640.88;5094885;28;20048;-64
2023/08/18 05:35:49;;;;;;;22.00;14.23;;;;;;;18.54;100.00;101658.47;5090003;28;20044;-64
2023/08/18 05:38:16;;;;;;;19.27;14.35;;;;;;;18.53;100.00;101654.16;5087615;28;20051;-64
2023/08/18 05:40:45;;;;;;;19.60;14.60;;;;;;;18.57;100.00;101646.66;5107813;28;20051;-66
2023/08/18 05:43:13;;;;;;;25.05;14.90;;;;;;;18.57;100.00;101650.13;5104893;28;20097;-65
2023/08/18 05:45:42;;;;;;;21.92;14.00;;;;;;;18.60;100.00;101646.28;5101822;27;20047;-66
2023/08/18 05:48:09;;;;;;;24.15;14.40;;;;;;;18.60;100.00;101643.63;5092227;28;20094;-65
2023/08/18 05:50:35;;;;;;;24.08;15.07;;;;;;;18.61;100.00;101639.97;5096543;28;20050;-66
2023/08/18 05:53:03;;;;;;;24.20;15.68;;;;;;;18.64;100.00;101649.41;5094666;28;20073;-66
2023/08/18 05:55:30;;;;;;;23.13;14.90;;;;;;;18.66;100.00;101650.03;5089124;28;20060;-65
2023/08/18 05:58:03;;;;;;;22.08;14.45;;;;;;;18.65;100.00;101646.56;5100979;28;20145;-65
2023/08/18 06:00:30;;;;;;;24.73;15.15;;;;;;;18.64;100.00;101636.13;5092076;28;20127;-66
2023/08/18 06:02:57;;;;;;;18.92;14.10;;;;;;;18.66;100.00;101636.75;5092415;28;20059;-66
2023/08/18 06:05:26;;;;;;;18.55;13.38;;;;;;;18.69;100.00;101641.72;5104063;28;20093;-65
2023/08/18 06:07:53;;;;;;;21.58;14.30;;;;;;;18.74;100.00;101644.69;5091522;28;20407;-65
2023/08/18 06:10:20;;;;;;;22.70;15.80;;;;;;;18.73;100.00;101643.03;5103666;28;20077;-66
2023/08/18 06:12:47;;;;;;;20.60;13.75;;;;;;;18.77;100.00;101634.50;5092098;28;20055;-65
2023/08/18 06:15:19;;;;;;;14.82;9.88;;;;;;;18.83;100.00;101638.28;5070149;28;20601;-66
2023/08/18 06:17:47;;;;;;;23.05;14.18;;;;;;;18.88;100.00;101638.59;5096627;28;20051;-66
2023/08/18 06:20:14;;;;;;;18.30;12.70;;;;;;;18.88;100.00;101640.44;5091608;28;20077;-66
2023/08/18 06:22:40;;;;;;;21.85;14.52;;;;;;;18.90;100.00;101647.22;5088391;28;20499;-66
2023/08/18 06:25:08;;;;;;;18.90;13.98;;;;;;;18.89;100.00;101637.56;5080318;28;20117;-66
2023/08/18 06:27:35;;;;;;;20.60;14.05;;;;;;;18.92;100.00;101634.56;5089373;28;20139;-66
2023/08/18 06:30:02;;;;;;;17.20;12.45;;;;;;;18.96;100.00;101635.84;5081600;28;20460;-65
2023/08/18 06:32:29;;;;;;;17.90;14.02;;;;;;;19.02;100.00;101638.78;5096163;28;20055;-66
2023/08/18 06:34:56;;;;;;;22.05;13.90;;;;;;;19.05;100.00;101635.75;5090112;28;20746;-66
2023/08/18 06:37:25;;;;;;;25.75;15.00;;;;;;;19.14;100.00;101630.16;5098170;28;20064;-66
2023/08/18 06:39:51;;;;;;;20.38;13.85;;;;;;;19.13;100.00;101619.69;5076719;28;20526;-66
2023/08/18 06:42:18;;;;;;;22.95;14.85;;;;;;;19.23;100.00;101614.09;5093679;28;20051;-66
2023/08/18 06:44:44;;;;;;;19.52;14.00;;;;;;;19.23;100.00;101612.28;5078652;28;20071;-67
2023/08/18 06:47:11;;;;;;;23.33;14.90;;;;;;;19.25;100.00;101614.75;5081987;28;20056;-66
2023/08/18 06:49:37;;;;;;;17.60;11.32;;;;;;;19.30;100.00;101613.19;5098920;28;20504;-66
2023/08/18 06:52:04;;;;;;;18.73;14.43;;;;;;;19.32;100.00;101603.19;5095997;28;20433;-68
2023/08/18 06:54:30;;;;;;;21.50;14.82;;;;;;;19.38;100.00;101620.25;5089198;28;20056;-65
2023/08/18 06:56:56;;;;;;;20.45;14.45;;;;;;;19.38;100.00;101619.44;5094856;27;20578;-67
2023/08/18 06:59:23;;;;;;;16.70;12.77;;;;;;;19.46;100.00;101620.13;5083038;28;20079;-66
2023/08/18 07:01:49;;;;;;;22.52;16.08;;;;;;;19.48;100.00;101620.81;5086388;28;20142;-66
2023/08/18 07:04:18;;;;;;;18.25;12.50;;;;;;;19.55;100.00;101619.03;5088574;28;20051;-66
2023/08/18 07:06:45;;;;;;;23.40;15.67;;;;;;;19.57;100.00;101624.16;5088723;28;20052;-66
2023/08/18 07:09:12;;;;;;;22.00;15.13;;;;;;;19.64;100.00;101622.44;5094718;28;20086;-66
2023/08/18 07:11:38;;;;;;;19.85;14.52;;;;;;;19.64;100.00;101616.25;5093662;28;20132;-66
2023/08/18 07:14:05;;;;;;;20.05;14.25;;;;;;;19.70;100.00;101623.53;5087792;28;20096;-66
2023/08/18 07:16:32;;;;;;;21.30;13.82;;;;;;;19.79;100.00;101619.75;5078902;28;20058;-66
2023/08/18 07:18:58;;;;;;;17.00;12.68;;;;;;;19.80;100.00;101624.06;5109285;27;20090;-66
2023/08/18 07:21:25;;;;;;;20.08;14.38;;;;;;;19.86;100.00;101618.00;5097455;28;20089;-66
2023/08/18 07:23:52;;;;;;;18.45;12.82;;;;;;;19.88;100.00;101621.28;5093495;28;20097;-65
2023/08/18 07:26:18;;;;;;;18.08;12.52;;;;;;;19.96;100.00;101628.34;5072661;28;20489;-66
2023/08/18 07:28:45;;;;;;;19.05;12.15;;;;;;;20.00;100.00;101626.94;5096263;28;20581;-66
2023/08/18 07:31:11;;;;;;;17.77;13.77;;;;;;;20.09;100.00;101628.47;5091370;28;20051;-66
2023/08/18 07:33:38;;;;;;;17.70;13.52;;;;;;;20.11;100.00;101629.09;5096130;28;20491;-66
2023/08/18 07:36:04;;;;;;;18.40;13.88;;;;;;;20.16;100.00;101620.53;5099353;28;20121;-66
2023/08/18 07:38:34;;;;;;;17.38;13.68;;;;;;;20.23;100.00;101621.44;5099880;28;20058;-66
2023/08/18 07:41:01;;;;;;;20.27;14.07;;;;;;;20.25;100.00;101632.72;5076111;28;20048;-66
2023/08/18 07:43:28;;;;;;;23.33;15.13;;;;;;;20.34;100.00;101622.75;5080910;28;20873;-65
2023/08/18 07:45:57;;;;;;;21.15;14.52;;;;;;;20.40;100.00;101626.47;5086737;27;20048;-66
2023/08/18 07:48:24;;;;;;;18.95;14.05;;;;;;;20.43;100.00;101629.59;5102562;28;20047;-66
2023/08/18 07:50:50;;;;;;;17.83;13.98;;;;;;;20.49;100.00;101628.00;5097743;27;20130;-65
2023/08/18 07:53:17;;;;;;;21.77;15.80;;;;;;;20.49;100.00;101630.66;5106452;27;20050;-65
2023/08/18 07:55:45;;;;;;;21.27;15.60;;;;;;;20.46;100.00;101625.72;5098923;27;20035;-65
2023/08/18 07:58:11;;;;;;;23.08;15.77;;;;;;;20.46;100.00;101631.84;5102493;27;20147;-66
2023/08/18 08:00:37;;;;;;;17.65;14.20;;;;;;;20.55;100.00;101627.22;5105045;27;20093;-66
2023/08/18 08:03:04;;;;;;;21.83;15.95;;;;;;;20.58;100.00;101642.00;5098278;27;20130;-65
2023/08/18 08:05:32;;;;;;;19.48;14.85;;;;;;;20.62;100.00;101629.97;5101922;27;20165;-65
2023/08/18 08:07:59;;;;;;;;;;;;;;;20.72;100.00;101628.63;5100392;27;20052;-65
2023/08/18 08:10:25;;;;;;;19.42;14.50;;;;;;;20.74;100.00;101634.59;5103489;27;19924;-65
2023/08/18 08:12:52;;;;;;;15.23;12.45;;;;;;;20.87;100.00;101641.03;5103220;27;20492;-66
2023/08/18 08:15:18;;;;;;;19.92;14.02;;;;;;;20.90;100.00;101641.47;5100559;27;20043;-65
2023/08/18 08:17:45;;;;;;;12.90;9.88;;;;;;;20.98;100.00;101640.50;5109581;28;20058;-66
2023/08/18 08:20:15;;;;;;;15.00;11.48;;;;;;;21.07;100.00;101636.66;5099849;28;20044;-65
2023/08/18 08:22:48;;;;;;;16.45;13.48;;;;;;;21.13;100.00;101643.06;5100595;28;20469;-65
2023/08/18 08:25:15;;;;;;;17.65;12.63;;;;;;;21.17;100.00;101641.63;5101623;28;20120;-65
2023/08/18 08:27:42;;;;;;;18.47;13.00;;;;;;;21.22;100.00;101638.38;5097571;28;20044;-66
2023/08/18 08:30:11;;;;;;;17.80;12.82;;;;;;;21.17;100.00;101641.63;5103744;28;20330;-65
2023/08/18 08:32:51;;;;;;;16.75;11.30;;;;;;;21.23;100.00;101640.00;5099054;28;20089;-65
2023/08/18 08:35:18;;;;;;;14.27;11.52;;;;;;;21.29;100.00;101640.06;5113819;28;20047;-65
2023/08/18 08:37:44;;;;;;;14.38;11.07;;;;;;;21.34;100.00;101644.78;5097556;27;20465;-65
2023/08/18 08:40:18;;;;;;;15.55;13.00;;;;;;;21.42;100.00;101646.47;5105384;28;20047;-66
2023/08/18 08:42:45;;;;;;;17.65;13.52;;;;;;;21.45;100.00;101646.13;5107920;27;20053;-65
2023/08/18 08:45:12;;;;;;;17.02;14.30;;;;;;;21.46;100.00;101647.75;5111019;27;20412;-66
2023/08/18 08:47:40;;;;;;;15.45;11.50;;;;;;;21.55;100.00;101646.56;5105618;28;20127;-65
2023/08/18 08:50:07;;;;;;;16.75;13.65;;;;;;;21.57;100.00;101649.03;5095510;27;20044;-65
2023/08/18 08:52:39;;;;;;;14.73;12.13;;;;;;;21.65;100.00;101643.53;5102872;28;20051;-66
2023/08/18 08:55:13;;;;;;;15.10;12.00;;;;;;;21.67;100.00;101644.97;5100288;28;20548;-66
2023/08/18 08:57:40;;;;;;;13.82;10.50;;;;;;;21.76;100.00;101647.44;5109613;28;20308;-65
2023/08/18 09:00:09;;;;;;;13.07;10.38;;;;;;;21.73;100.00;101646.81;5096905;28;20476;-66
2023/08/18 09:02:36;;;;;;;14.73;12.52;;;;;;;21.74;100.00;101642.34;5089762;28;20228;-66
2023/08/18 09:05:03;;;;;;;14.60;12.27;;;;;;;21.73;100.00;101636.16;5094308;28;20264;-65
2023/08/18 09:07:30;;;;;;;12.30;9.20;;;;;;;21.91;100.00;101640.09;5098814;28;20247;-66
2023/08/18 09:09:56;;;;;;;16.40;12.52;;;;;;;21.92;100.00;101636.41;5104841;28;20097;-66
2023/08/18 09:12:28;;;;;;;14.95;12.15;;;;;;;22.00;100.00;101632.75;5090535;28;20143;-66
2023/08/18 09:14:58;;;;;;;14.75;12.15;;;;;;;22.00;100.00;101633.56;5102619;28;20055;-66
2023/08/18 09:17:28;;;;;;;14.48;11.52;;;;;;;22.05;100.00;101640.94;5096851;28;20053;-66
2023/08/18 09:19:59;;;;;;;18.38;12.35;;;;;;;22.03;100.00;101638.50;5101476;28;20123;-66
2023/08/18 09:22:27;;;;;;;13.73;11.27;;;;;;;22.08;100.00;101633.34;5110252;28;20055;-66
2023/08/18 09:24:56;;;;;;;15.63;12.40;;;;;;;22.04;100.00;101626.78;5101715;27;20122;-67
2023/08/18 09:27:23;;;;;;;15.32;13.05;;;;;;;22.09;100.00;101632.34;5094078;27;20217;-66
2023/08/18 09:29:50;;;;;;;15.15;12.27;;;;;;;22.10;100.00;101635.84;5104627;27;20043;-66
2023/08/18 09:32:16;;;;;;;16.33;11.77;;;;;;;22.18;100.00;101632.16;5097245;27;20079;-66
2023/08/18 09:34:44;;;;;;;13.10;10.85;;;;;;;22.29;100.00;101634.25;5107857;27;20124;-65
2023/08/18 09:37:11;;;;;;;15.68;12.43;;;;;;;22.37;100.00;101635.91;5091899;27;20079;-67
2023/08/18 09:42:14;;;;;;;14.57;11.52;;;;;;;22.61;100.00;101624.56;5606704;22;20739;-66
2023/08/18 09:44:41;;;;;;;12.50;10.02;;;;;;;22.82;100.00;101626.19;5032991;28;20058;-66
2023/08/18 09:47:10;;;;;;;13.02;11.63;;;;;;;22.89;100.00;101624.34;5031899;28;20475;-66
2023/08/18 09:49:39;;;;;;;14.23;11.30;;;;;;;22.99;100.00;101626.59;5034519;28;20053;-66
2023/08/18 09:52:08;;;;;;;13.05;11.13;;;;;;;23.07;100.00;101625.53;5027147;28;20045;-67
2023/08/18 09:54:43;;;;;;;13.77;11.85;;;;;;;23.24;100.00;101634.75;5033885;28;20135;-66
2023/08/18 09:57:20;;;;;;;12.63;10.70;;;;;;;23.32;100.00;101625.69;5025712;28;20042;-67
2023/08/18 09:59:55;;;;;;;11.02;9.88;;;;;;;23.43;100.00;101626.88;5028725;28;20096;-66
2023/08/18 10:02:27;;;;;;;14.88;10.93;;;;;;;23.56;100.00;101626.84;5042070;28;20049;-67
2023/08/18 10:04:55;;;;;;;12.27;10.98;;;;;;;23.65;100.00;101620.19;5023729;28;20053;-66
2023/08/18 10:07:22;;;;;;;35.70;12.68;;;;;;;23.77;100.00;101620.31;5034291;28;20464;-66
2023/08/18 10:09:50;;;;;;;14.50;11.93;;;;;;;23.90;100.00;101615.97;5019372;28;20049;-65
2023/08/18 10:12:16;;;;;;;13.93;12.23;;;;;;;23.99;100.00;101614.66;5029551;28;20511;-66
2023/08/18 10:14:45;;;;;;;9.77;7.78;;;;;;;24.07;100.00;101604.50;5037609;28;20051;-67
2023/08/18 10:17:12;;;;;;;11.45;8.68;;;;;;;24.20;99.35;101597.41;5031550;28;20053;-67
2023/08/18 10:19:50;;;;;;;12.07;10.87;;;;;;;24.36;98.48;101602.19;5035089;28;20050;-66
2023/08/18 10:22:18;;;;;;;10.48;8.25;;;;;;;24.59;98.70;101598.13;5023248;28;20744;-66
2023/08/18 10:24:45;;;;;;;;;;;;;;;24.90;96.69;101601.75;5025587;28;20073;-66
2023/08/18 10:27:13;;;;;;;11.68;9.80;;;;;;;24.97;94.39;101595.25;5019920;28;20530;-65
2023/08/18 10:29:42;;;;;;;11.80;10.60;;;;;;;25.26;93.71;101595.56;5026373;28;20095;-66
2023/08/18 10:32:11;;;;;;;11.60;10.38;;;;;;;25.41;92.69;101601.34;5028617;28;20123;-66
2023/08/18 10:34:38;;;;;;;14.40;10.80;;;;;;;25.68;94.86;101592.09;5029513;28;20055;-65
2023/08/18 10:37:05;;;;;;;12.57;10.48;;;;;;;25.84;89.20;101588.78;5019856;28;21871;-66
2023/08/18 10:39:36;;;;;;;15.65;11.70;;;;;;;26.08;89.45;101592.38;5017910;28;20046;-66
2023/08/18 10:42:07;;;;;;;11.95;10.63;;;;;;;26.34;87.13;101587.59;5033931;28;20047;-67
2023/08/18 10:44:34;;;;;;;10.43;9.32;;;;;;;26.64;87.59;101592.91;5041928;28;20080;-66
2023/08/18 10:47:03;;;;;;;13.38;11.63;;;;;;;26.87;83.26;101585.84;5048351;28;20049;-66
2023/08/18 10:49:30;;;;;;;9.90;8.90;;;;;;;27.10;84.99;101591.19;5043643;28;20080;-64
2023/08/18 10:51:57;;;;;;;10.35;9.25;;;;;;;27.34;81.46;101585.75;5036059;28;20060;-64
2023/08/18 10:54:23;;;;;;;11.63;9.65;;;;;;;27.36;79.12;101589.84;5048827;28;20053;-65
2023/08/18 10:56:50;;;;;;;10.52;9.40;;;;;;;27.61;77.47;101586.78;5046431;28;20084;-66
2023/08/18 10:59:18;;;;;;;16.52;10.85;;;;;;;27.73;74.68;101580.53;5050222;28;20061;-64
2023/08/18 11:01:44;;;;;;;12.40;10.82;;;;;;;27.71;76.13;101569.19;5023446;28;20540;-63
2023/08/18 11:04:13;;;;;;;12.05;10.80;;;;;;;27.78;77.15;101562.56;5045977;28;20055;-64
2023/08/18 11:06:41;;;;;;;12.63;10.65;;;;;;;27.91;76.60;101564.19;5044120;28;20076;-64
2023/08/18 11:09:08;;;;;;;12.65;10.15;;;;;;;27.99;75.20;101563.75;5047462;28;20130;-62
2023/08/18 11:11:37;;;;;;;10.18;9.13;;;;;;;27.97;75.56;101560.50;5048279;28;20049;-64
2023/08/18 11:14:04;;;;;;;11.45;9.93;;;;;;;28.07;74.96;101554.44;5040792;28;21457;-64